Home > Products > Valid Products > TAF

000
FTUS42 KTAE 310100 AAA
TAFABY
TAF AMD
KABY 310141Z 3102/3124 VRB03KT P6SM VCTS SCT030CB BKN250
      TEMPO 3102/3104 3SM TSRA BKN030CB
     FM310400 00000KT P6SM SCT040 BKN250
      TEMPO 3110/3113 00000KT 3SM BR SCT002
     FM311600 16005KT P6SM SCT040=



000
FTUS42 KTAE 310100 AAA
TAFVLD
TAF AMD
KVLD 310141Z 3102/3124 18003KT P6SM SCT030 BKN250
      TEMPO 3102/3104 3SM TSRA BKN030CB
     FM310400 00000KT P6SM SCT040 BKN250
      TEMPO 3110/3113 00000KT 3SM BR SCT002
     FM311600 16005KT P6SM SCT040
      TEMPO 3119/3123 3SM TSRA BKN030CB=



000
FTUS42 KTAE 302300
TAFABY
TAF
KABY 302331Z 3100/3124 24004KT P6SM VCTS SCT030CB BKN250
      TEMPO 3100/3102 2SM +TSRA BKN030CB
     FM310300 00000KT P6SM SCT040 BKN250
      TEMPO 3110/3113 00000KT 3SM BR SCT002
     FM311600 16005KT P6SM SCT040=



000
FTUS42 KTAE 302300
TAFVLD
TAF
KVLD 302331Z 3100/3124 18003KT P6SM SCT030 BKN250
      TEMPO 3100/3102 3SM TSRA BKN030CB
     FM310200 00000KT P6SM SCT040 BKN250
      TEMPO 3110/3113 00000KT 3SM BR SCT002
     FM311600 16005KT P6SM SCT040
      TEMPO 3119/3123 3SM TSRA BKN030CB=



000
FTUS42 KTAE 302300
TAFDHN
TAF
KDHN 302331Z 3100/3124 21003KT P6SM SCT030 BKN250
      TEMPO 3110/3113 00000KT 3SM BR SCT002
     FM311600 16005KT P6SM SCT040=



000
FTUS42 KTAE 302300
TAFTLH
TAF
KTLH 302331Z 3100/3124 18003KT P6SM SCT040 BKN250
      TEMPO 3110/3113 00000KT 3SM BR SCT002
     FM311600 13005KT P6SM SCT040
      TEMPO 3119/3123 3SM TSRA BKN030CB=



000
FTUS42 KTAE 302000 AAA
TAFABY
TAF AMD
KABY 302022Z 3020/3118 00000KT P6SM FEW060 SCT080
      TEMPO 3022/3024 3SM TSRA BKN050CB
     FM310000 19004KT P6SM SCT250
     FM311000 00000KT 4SM BR FEW004
     FM311500 15005KT P6SM SCT030 SCT250=



000
FTUS42 KTAE 302000 AAB
TAFTLH
TAF AMD
KTLH 302020Z 3020/3118 15004KT P6SM TS SCT040CB SCT250
     FM302100 17007KT P6SM SCT040 SCT250
     FM310000 19004KT P6SM SCT250
     FM310900 00000KT 5SM BR FEW250
     FM311300 10004KT P6SM SCT030 SCT250=



000
FTUS42 KTAE 301900 AAA
TAFDHN
TAF AMD
KDHN 301955Z 3020/3118 14007KT P6SM BKN045
     FM310000 22005KT P6SM BKN250
     FM311000 00000KT 4SM BR FEW004
     FM311500 16005KT P6SM SCT030 SCT250=



000
FTUS42 KTAE 301900 AAA
TAFTLH
TAF AMD
KTLH 301931Z 3020/3118 32004KT P6SM VCSH SCT045 BKN250
     FM310000 19004KT P6SM SCT250
     FM310900 00000KT 5SM BR FEW250
     FM311300 10004KT P6SM SCT030 SCT250=



000
FTUS42 KTAE 301700
TAFDHN
TAF
KDHN 301740Z 3018/3118 18005KT P6SM VCSH BKN035 BKN045 BKN090
      TEMPO 3019/3021 5SM TSRA BKN035CB
     FM310000 22005KT P6SM BKN250
     FM311000 00000KT 4SM BR FEW004
     FM311500 16005KT P6SM SCT030 SCT250=



000
FTUS42 KTAE 301700
TAFABY
TAF
KABY 301740Z 3018/3118 12003KT P6SM SCT030
      TEMPO 3020/3024 3SM TSRA OVC030CB
     FM310000 19004KT P6SM SCT250
     FM311000 00000KT 4SM BR FEW004
     FM311500 15005KT P6SM SCT030 SCT250=



000
FTUS42 KTAE 301700
TAFTLH
TAF
KTLH 301740Z 3018/3118 12005KT P6SM VCSH SCT045 BKN250
      TEMPO 3018/3020 5SM -TSRA BKN035CB
     FM310000 19004KT P6SM SCT250
     FM310900 00000KT 5SM BR FEW250
     FM311300 10004KT P6SM SCT030 SCT250=



000
FTUS42 KTAE 301700
TAFVLD
TAF
KVLD 301740Z 3018/3118 13004KT P6SM VCSH SCT035
      TEMPO 3018/3022 4SM TSRA BKN035CB
     FM310000 15003KT P6SM BKN250
     FM311000 00000KT 4SM BR FEW004
     FM311500 15005KT P6SM SCT030 SCT250=



000
FTUS42 KTAE 301600 AAB
TAFVLD
TAF AMD
KVLD 301631Z 3017/3112 12004KT P6SM BKN025
      TEMPO 3020/3024 5SM TSRA BKN035CB
     FM310000 15003KT P6SM BKN250=



000
FTUS42 KTAE 301400 AAC
TAFABY
TAF AMD
KABY 301456Z 3015/3112 09003KT P6SM SCT010 BKN021
     FM301800 20007KT P6SM VCTS SCT035CB BKN050
      TEMPO 3020/3024 5SM TSRA BKN035CB
     FM310000 19004KT P6SM SCT250=



000
FTUS42 KTAE 301400 AAD
TAFDHN
TAF AMD
KDHN 301456Z 3015/3112 11006KT P6SM SCT010
     FM301600 20006KT P6SM SCT035 BKN050
      TEMPO 3019/3023 5SM TSRA BKN035CB
     FM310000 22005KT P6SM BKN250
     FM310900 00000KT 2SM BR SCT002=



000
FTUS42 KTAE 301400 AAA
TAFVLD
TAF AMD
KVLD 301456Z 3015/3112 05004KT P6SM BKN015 BKN021
     FM301600 16003KT P6SM VCTS SCT035CB BKN050
      TEMPO 3020/3024 5SM TSRA BKN035CB
     FM310000 15003KT P6SM BKN250=



000
FTUS42 KTAE 301400 AAC
TAFDHN
TAF AMD
KDHN 301440Z 3015/3112 16005KT P6SM BKN006
     FM301600 20006KT P6SM SCT035 BKN050
      TEMPO 3019/3023 5SM TSRA BKN035CB
     FM310000 22005KT P6SM BKN250
     FM310900 00000KT 2SM BR SCT002=



000
FTUS42 KTAE 301400 AAB
TAFABY
TAF AMD
KABY 301414Z 3014/3112 00000KT 4SM BR OVC004
     FM301500 VRB03KT P6SM SCT008
     FM301800 20007KT P6SM VCTS SCT035CB BKN050
      TEMPO 3020/3024 5SM TSRA BKN035CB
     FM310000 19004KT P6SM SCT250=



000
FTUS42 KTAE 301400 AAB
TAFDHN
TAF AMD
KDHN 301406Z 3014/3112 13004KT P6SM OVC002
     FM301500 20003KT P6SM FEW020
     FM301800 20006KT P6SM VCTS SCT035CB BKN050
      TEMPO 3019/3023 5SM TSRA BKN035CB
     FM310000 22005KT P6SM BKN250
     FM310900 00000KT 2SM BR SCT002=



000
FTUS42 KTAE 301300 AAA
TAFABY
TAF AMD
KABY 301301Z 3013/3112 00000KT 1SM BR OVC002
     FM301400 19003KT P6SM FEW020
     FM301800 20007KT P6SM VCTS SCT035CB BKN050
      TEMPO 3020/3024 5SM TSRA BKN035CB
     FM310000 19004KT P6SM SCT250=



000
FTUS42 KTAE 301300 AAA
TAFDHN
TAF AMD
KDHN 301301Z 3013/3112 14004KT 1/2SM FG VV002
     FM301400 20003KT P6SM FEW020
     FM301800 20006KT P6SM VCTS SCT035CB BKN050
      TEMPO 3019/3023 5SM TSRA BKN035CB
     FM310000 22005KT P6SM BKN250
     FM310900 00000KT 2SM BR SCT002=



000
FTUS42 KTAE 301100
TAFABY
TAF
KABY 301139Z 3012/3112 00000KT 5SM BR BKN002
     FM301400 19003KT P6SM FEW020
     FM301800 20007KT P6SM VCTS SCT035CB BKN050
      TEMPO 3020/3024 5SM TSRA BKN035CB
     FM310000 19004KT P6SM SCT250=



000
FTUS42 KTAE 301100
TAFVLD
TAF
KVLD 301139Z 3012/3112 00000KT P6SM FEW010
     FM301300 15003KT P6SM FEW030
     FM301600 16003KT P6SM VCTS SCT035CB BKN050
      TEMPO 3020/3024 5SM TSRA BKN035CB
     FM310000 15003KT P6SM BKN250=



000
FTUS42 KTAE 301100
TAFDHN
TAF
KDHN 301139Z 3012/3112 14004KT 1/4SM FG VV001
     FM301400 20003KT P6SM FEW020
     FM301800 20006KT P6SM VCTS SCT035CB BKN050
      TEMPO 3019/3023 5SM TSRA BKN035CB
     FM310000 22005KT P6SM BKN250
     FM310900 00000KT 2SM BR SCT002=



000
FTUS42 KTAE 301100
TAFTLH
TAF
KTLH 301139Z 3012/3112 00000KT 3SM BR FEW002 SCT250
     FM301400 14003KT P6SM FEW030
     FM301700 16008KT P6SM VCTS SCT035CB BKN050
     FM310000 19004KT P6SM SCT250
     FM310900 00000KT 5SM BR FEW250=



000
FTUS42 KTAE 300900 AAB
TAFDHN
TAF AMD
KDHN 300944Z 3010/3106 11004KT 2SM BR BKN002
      TEMPO 3010/3012 1/4SM FG VV002
     FM301300 20003KT P6SM FEW030
     FM301500 20006KT P6SM VCTS SCT035CB BKN050
      TEMPO 3019/3023 5SM TSRA BKN035CB
     FM310000 22005KT P6SM BKN250=



000
FTUS42 KTAE 300800 AAA
TAFDHN
TAF AMD
KDHN 300859Z 3009/3106 11004KT 3SM BR SCT002
      TEMPO 3009/3012 1 1/2SM BR BKN002
     FM301300 20003KT P6SM FEW030
     FM301500 20006KT P6SM VCTS SCT035CB BKN050
      TEMPO 3019/3023 5SM TSRA BKN035CB
     FM310000 22005KT P6SM BKN250=



000
FTUS42 KTAE 300500
TAFDHN
TAF
KDHN 300537Z 3006/3106 20003KT P6SM SCT250
      TEMPO 3008/3012 5SM BR
     FM301500 20006KT P6SM VCTS SCT035CB BKN050
      TEMPO 3019/3023 5SM TSRA BKN035CB
     FM310000 22005KT P6SM BKN250=



000
FTUS42 KTAE 300500
TAFVLD
TAF
KVLD 300537Z 3006/3106 00000KT P6SM BKN090
      TEMPO 3009/3013 5SM BR SCT002
     FM301600 16003KT P6SM VCTS SCT035CB BKN050
      TEMPO 3020/3024 5SM TSRA BKN035CB
     FM310000 15003KT P6SM BKN250=



000
FTUS42 KTAE 300500
TAFABY
TAF
KABY 300537Z 3006/3106 00000KT P6SM FEW015
      TEMPO 3008/3012 5SM BR SCT004
     FM301500 20007KT P6SM VCTS SCT035CB BKN050
      TEMPO 3020/3024 5SM TSRA BKN035CB
     FM310000 19004KT P6SM SCT250=



000
FTUS42 KTAE 300500
TAFTLH
TAF
KTLH 300537Z 3006/3106 08003KT P6SM SCT120
      TEMPO 3008/3012 5SM BR
     FM301600 16008KT P6SM VCTS SCT035CB BKN050
     FM310000 19004KT P6SM SCT250=



000
FTUS42 KTAE 292300
TAFABY
TAF
KABY 292321Z 3000/3024 20004KT P6SM FEW080 SCT250
     FM300200 00000KT P6SM FEW100 BKN250
      TEMPO 3008/3012 5SM BR SCT004
     FM301500 20007KT P6SM VCTS SCT035CB BKN050
      TEMPO 3020/3024 5SM TSRA BKN035CB=



000
FTUS42 KTAE 292300
TAFTLH
TAF
KTLH 292321Z 3000/3024 16003KT P6SM FEW040 BKN110 OVC200
     FM300200 00000KT P6SM SCT120 BKN250
      TEMPO 3008/3012 5SM BR
     FM301600 16008KT P6SM VCTS SCT035CB BKN050=



000
FTUS42 KTAE 292300
TAFDHN
TAF
KDHN 292321Z 3000/3024 17004KT P6SM SCT070 OVC200
     FM300200 VRB04KT P6SM FEW090 BKN250
      TEMPO 3008/3012 5SM BR
     FM301500 20006KT P6SM VCTS SCT035CB BKN050
      TEMPO 3019/3023 5SM TSRA BKN035CB=



000
FTUS42 KTAE 292300
TAFVLD
TAF
KVLD 292321Z 3000/3024 17003KT P6SM SCT120 BKN250
      TEMPO 3009/3013 5SM BR SCT002
     FM301600 16003KT P6SM VCTS SCT035CB BKN050
      TEMPO 3020/3024 5SM TSRA BKN035CB=



000
FTUS42 KTAE 292100 AAA
TAFABY
TAF AMD
KABY 292137Z 2922/3018 16006KT P6SM SCT080 SCT090 BKN120
     FM300200 VRB04KT P6SM FEW040 BKN250
     FM301500 17006KT P6SM BKN050=



000
FTUS42 KTAE 292100 AAB
TAFDHN
TAF AMD
KDHN 292136Z 2922/3018 14011KT P6SM SCT070
     FM300200 VRB04KT P6SM FEW040 BKN250
     FM301500 17006KT P6SM BKN050=



000
FTUS42 KTAE 292000 AAA
TAFDHN
TAF AMD
KDHN 292020Z 2920/3018 13007KT P6SM BKN070
      TEMPO 2920/2924 5SM -RA
     FM300200 VRB04KT P6SM FEW040 BKN250
     FM301500 17006KT P6SM BKN050=



000
FTUS42 KTAE 292000 AAA
TAFTLH
TAF AMD
KTLH 292006Z 2920/3018 VRB05KT P6SM SCT040 BKN110 OVC250
     FM300100 VRB03KT P6SM BKN250
     FM301500 16006KT P6SM BKN040 BKN250=



000
FTUS42 KTAE 291700
TAFDHN
TAF
KDHN 291726Z 2918/3018 VRB04KT P6SM VCTS SCT050CB BKN250
     FM292000 16008KT P6SM VCTS BKN050CB
      TEMPO 2920/2924 VRB15G25KT 4SM TSRA BKN025CB OVC040
     FM300200 VRB04KT P6SM FEW040 BKN250
     FM301500 17006KT P6SM BKN050=



000
FTUS42 KTAE 291700
TAFABY
TAF
KABY 291726Z 2918/3018 VRB05KT P6SM SCT050 SCT250
     FM292000 16008KT P6SM VCTS BKN050CB
      TEMPO 2920/2924 VRB15G25KT 4SM TSRA BKN025CB OVC040
     FM300200 VRB04KT P6SM FEW040 BKN250
     FM301500 17006KT P6SM BKN050=



000
FTUS42 KTAE 291700
TAFTLH
TAF
KTLH 291726Z 2918/3018 12011KT P6SM VCTS BKN040CB
      TEMPO 2918/2922 VRB15G25KT 2SM +TSRA BKN025CB OVC040
     FM300100 VRB03KT P6SM FEW030 BKN250
     FM301500 16006KT P6SM BKN040 BKN250=



000
FTUS42 KTAE 291700
TAFVLD
TAF
KVLD 291726Z 2918/3018 14005KT P6SM SCT050 SCT250
     FM292200 18006KT P6SM VCTS SCT050CB SCT250
     FM300200 00000KT P6SM SCT250
      TEMPO 3009/3013 5SM BR
     FM301500 17006KT P6SM BKN050=



000
FTUS42 KTAE 291500 AAA
TAFTLH
TAF AMD
KTLH 291542Z 2916/3012 12008KT P6SM SCT025 BKN040
      TEMPO 2916/2918 BKN025
     FM291800 16007KT P6SM SHRA BKN040
      TEMPO 2918/2922 3SM TSRA BKN040CB
     FM300000 VRB03KT P6SM FEW030 BKN250=



000
FTUS42 KTAE 291100
TAFDHN
TAF
KDHN 291120Z 2912/3012 VRB04KT P6SM SCT250
     FM291300 13007KT P6SM SCT050 BKN250
     FM292000 16008KT P6SM VCSH SCT050
     FM300200 VRB04KT P6SM FEW040 BKN250=



000
FTUS42 KTAE 291100
TAFTLH
TAF
KTLH 291120Z 2912/3012 VRB03KT P6SM SCT250
     FM291700 16007KT P6SM SHRA BKN040
      TEMPO 2919/2923 3SM TSRA BKN040CB
     FM300000 VRB03KT P6SM FEW030 BKN250=



000
FTUS42 KTAE 291100
TAFVLD
TAF
KVLD 291120Z 2912/3012 VRB02KT P6SM FEW250
      TEMPO 2912/2913 5SM BR
     FM291400 14005KT P6SM SCT050 SCT250
     FM292000 18006KT P6SM VCTS SCT050CB SCT250
     FM300200 00000KT P6SM SCT250=



000
FTUS42 KTAE 291100
TAFABY
TAF
KABY 291120Z 2912/3012 VRB03KT P6SM FEW250
     FM291400 15005KT P6SM SCT050 SCT250
     FM300000 VRB03KT P6SM SCT250=



000
FTUS42 KTAE 290500
TAFVLD
TAF
KVLD 290520Z 2906/3006 00000KT P6SM FEW250
      TEMPO 2910/2913 5SM BR
     FM291400 14005KT P6SM SCT050 SCT250
     FM292000 18006KT P6SM -SHRA VCTS SCT050CB SCT250
     FM300200 00000KT P6SM SCT250=



000
FTUS42 KTAE 290500
TAFDHN
TAF
KDHN 290520Z 2906/3006 00000KT P6SM BKN250
     FM291300 13007KT P6SM SCT050 BKN250
     FM292000 16008KT P6SM -SHRA VCTS BKN050CB
     FM300200 VRB04KT P6SM FEW040 BKN250=



000
FTUS42 KTAE 290500
TAFABY
TAF
KABY 290520Z 2906/3006 00000KT P6SM SCT250
     FM291400 15005KT P6SM SCT050 SCT250
     FM292100 17007KT P6SM VCSH SCT050 SCT250
     FM300200 VRB03KT P6SM SCT250=



000
FTUS42 KTAE 290500
TAFTLH
TAF
KTLH 290520Z 2906/3006 00000KT P6SM BKN250
     FM291600 16007KT P6SM SHRA BKN040
      TEMPO 2918/2922 3SM TSRA BKN040CB
     FM292300 VRB03KT P6SM FEW030 BKN250=



000
FTUS42 KTAE 282300
TAFTLH
TAF
KTLH 282320Z 2900/2924 00000KT P6SM SKC
     FM291400 13006KT P6SM SCT050 BKN250
     FM291900 17009KT 6SM -SHRA BKN050
      TEMPO 2920/2924 3SM TSRA SCT025CB BKN050=



000
FTUS42 KTAE 282300
TAFVLD
TAF
KVLD 282320Z 2900/2924 00000KT P6SM FEW080
      TEMPO 2908/2912 5SM BR
     FM291500 15003KT P6SM SCT050 BKN250
     FM291900 16005KT P6SM BKN050
      TEMPO 2920/2924 3SM TSRA SCT025CB BKN050=



000
FTUS42 KTAE 282300
TAFDHN
TAF
KDHN 282320Z 2900/2924 21003KT P6SM SCT250
     FM291500 14005KT P6SM SCT050 BKN250
     FM291800 17007KT P6SM BKN050 PROB30 2918/2924 3SM TSRA SCT025CB
      BKN050=



000
FTUS42 KTAE 282300
TAFABY
TAF
KABY 282320Z 2900/2924 00000KT P6SM SKC
     FM291500 15005KT P6SM SCT050 BKN250
     FM291800 18006KT P6SM BKN050 PROB30 2918/2924 3SM TSRA SCT025CB
      BKN050=



000
FTUS42 KTAE 281700
TAFDHN
TAF
KDHN 281738Z 2818/2918 VRB05KT P6SM SCT070 SCT250
     FM290000 VRB03KT P6SM SCT250
     FM291500 12005KT P6SM SCT050 SCT250=



000
FTUS42 KTAE 281700
TAFABY
TAF
KABY 281738Z 2818/2918 VRB05KT P6SM FEW070
     FM290000 00000KT P6SM SCT250
     FM291500 13005KT P6SM SCT050 SCT250=



000
FTUS42 KTAE 281700
TAFVLD
TAF
KVLD 281738Z 2818/2918 VRB03KT P6SM SCT250
     FM290000 00000KT P6SM SCT250
     FM291500 13005KT P6SM SCT050 SCT250=



000
FTUS42 KTAE 281700
TAFTLH
TAF
KTLH 281738Z 2818/2918 VRB05KT P6SM BKN070 BKN250
     FM290000 00000KT P6SM SCT250
     FM291500 13007KT P6SM SCT050 SCT250=



000
FTUS42 KTAE 281100
TAFDHN
TAF
KDHN 281120Z 2812/2912 VRB05KT P6SM SCT250=



000
FTUS42 KTAE 281100
TAFABY
TAF
KABY 281120Z 2812/2912 17005KT P6SM SCT250=



000
FTUS42 KTAE 281100
TAFTLH
TAF
KTLH 281120Z 2812/2912 13005KT P6SM FEW060 SCT250=



000
FTUS42 KTAE 281100
TAFVLD
TAF
KVLD 281120Z 2812/2912 00000KT 5SM BR SKC
     FM281300 VRB03KT P6SM SCT250=



000
FTUS42 KTAE 280500
TAFABY
TAF
KABY 280520Z 2806/2906 00000KT P6SM SKC
     FM281900 16005KT P6SM FEW060=



000
FTUS42 KTAE 280500
TAFVLD
TAF
KVLD 280520Z 2806/2906 VRB03KT P6SM SKC
      TEMPO 2808/2812 5SM BR=



000
FTUS42 KTAE 280500
TAFDHN
TAF
KDHN 280520Z 2806/2906 VRB05KT P6SM SKC=



000
FTUS42 KTAE 280500
TAFTLH
TAF
KTLH 280520Z 2806/2906 00000KT P6SM SKC
     FM281500 14005KT P6SM SCT060=



    US Dept of Commerce
    National Oceanic and Atmospheric Administration
    National Weather Service
    1325 East West Highway
    Silver Spring, MD 20910
    Page Author: NWS Internet Services Team
Disclaimer
Information Quality
Credits
Glossary
Privacy Policy
Freedom of Information Act (FOIA)
About Us
Career Opportunities